sensor_id;sensor_type;location;lat;lon;timestamp;P1;durP1;ratioP1;P2;durP2;ratioP2
35648;SDS011;21768;48.562;13.414;2023-06-10T00:01:47;18.25;;;9.07;;
35648;SDS011;21768;48.562;13.414;2023-06-10T00:04:13;13.85;;;8.40;;
35648;SDS011;21768;48.562;13.414;2023-06-10T00:06:39;31.95;;;9.85;;
35648;SDS011;21768;48.562;13.414;2023-06-10T00:09:06;16.38;;;9.30;;
35648;SDS011;21768;48.562;13.414;2023-06-10T00:11:35;14.40;;;8.82;;
35648;SDS011;21768;48.562;13.414;2023-06-10T00:14:01;19.63;;;9.55;;
35648;SDS011;21768;48.562;13.414;2023-06-10T00:16:26;28.05;;;9.13;;
35648;SDS011;21768;48.562;13.414;2023-06-10T00:18:52;78.40;;;11.07;;
35648;SDS011;21768;48.562;13.414;2023-06-10T00:21:17;230.48;;;11.55;;
35648;SDS011;21768;48.562;13.414;2023-06-10T00:23:44;236.60;;;12.00;;
35648;SDS011;21768;48.562;13.414;2023-06-10T00:26:09;134.45;;;10.32;;
35648;SDS011;21768;48.562;13.414;2023-06-10T00:28:35;95.60;;;9.48;;
35648;SDS011;21768;48.562;13.414;2023-06-10T00:31:00;28.13;;;9.43;;
35648;SDS011;21768;48.562;13.414;2023-06-10T00:33:27;13.48;;;8.20;;
35648;SDS011;21768;48.562;13.414;2023-06-10T00:35:53;9.40;;;7.38;;
35648;SDS011;21768;48.562;13.414;2023-06-10T00:38:18;11.32;;;7.88;;
35648;SDS011;21768;48.562;13.414;2023-06-10T00:40:44;12.10;;;7.88;;
35648;SDS011;21768;48.562;13.414;2023-06-10T00:43:09;27.83;;;8.07;;
35648;SDS011;21768;48.562;13.414;2023-06-10T00:45:35;9.95;;;7.50;;
35648;SDS011;21768;48.562;13.414;2023-06-10T00:48:00;11.02;;;8.15;;
35648;SDS011;21768;48.562;13.414;2023-06-10T00:50:26;10.40;;;7.43;;
35648;SDS011;21768;48.562;13.414;2023-06-10T00:52:53;12.57;;;7.63;;
35648;SDS011;21768;48.562;13.414;2023-06-10T00:55:19;21.15;;;8.57;;
35648;SDS011;21768;48.562;13.414;2023-06-10T00:57:45;57.83;;;8.95;;
35648;SDS011;21768;48.562;13.414;2023-06-10T01:00:13;51.47;;;8.82;;
35648;SDS011;21768;48.562;13.414;2023-06-10T01:02:40;14.43;;;9.18;;
35648;SDS011;21768;48.562;13.414;2023-06-10T01:05:08;24.10;;;8.60;;
35648;SDS011;21768;48.562;13.414;2023-06-10T01:10:10;133.50;;;10.48;;
35648;SDS011;21768;48.562;13.414;2023-06-10T01:12:43;57.42;;;9.63;;
35648;SDS011;21768;48.562;13.414;2023-06-10T01:15:16;182.57;;;10.75;;
35648;SDS011;21768;48.562;13.414;2023-06-10T01:20:20;51.30;;;7.88;;
35648;SDS011;21768;48.562;13.414;2023-06-10T01:22:46;78.97;;;9.00;;
35648;SDS011;21768;48.562;13.414;2023-06-10T01:25:13;17.33;;;8.30;;
35648;SDS011;21768;48.562;13.414;2023-06-10T01:27:38;19.30;;;7.93;;
35648;SDS011;21768;48.562;13.414;2023-06-10T01:30:08;9.05;;;7.13;;
35648;SDS011;21768;48.562;13.414;2023-06-10T01:32:46;9.07;;;6.88;;
35648;SDS011;21768;48.562;13.414;2023-06-10T01:35:15;10.15;;;6.85;;
35648;SDS011;21768;48.562;13.414;2023-06-10T01:37:41;9.02;;;6.80;;
35648;SDS011;21768;48.562;13.414;2023-06-10T01:40:10;8.95;;;6.70;;
35648;SDS011;21768;48.562;13.414;2023-06-10T01:42:37;9.43;;;6.70;;
35648;SDS011;21768;48.562;13.414;2023-06-10T01:45:03;15.48;;;6.57;;
35648;SDS011;21768;48.562;13.414;2023-06-10T01:47:29;9.07;;;6.70;;
35648;SDS011;21768;48.562;13.414;2023-06-10T01:49:54;8.18;;;6.68;;
35648;SDS011;21768;48.562;13.414;2023-06-10T01:52:20;10.43;;;7.45;;
35648;SDS011;21768;48.562;13.414;2023-06-10T01:54:45;11.70;;;7.45;;
35648;SDS011;21768;48.562;13.414;2023-06-10T01:57:11;9.55;;;7.00;;
35648;SDS011;21768;48.562;13.414;2023-06-10T01:59:36;9.73;;;7.40;;
35648;SDS011;21768;48.562;13.414;2023-06-10T02:02:03;12.00;;;7.38;;
35648;SDS011;21768;48.562;13.414;2023-06-10T02:04:29;10.23;;;7.28;;
35648;SDS011;21768;48.562;13.414;2023-06-10T02:06:55;10.65;;;7.18;;
35648;SDS011;21768;48.562;13.414;2023-06-10T02:09:21;11.15;;;6.95;;
35648;SDS011;21768;48.562;13.414;2023-06-10T02:11:47;13.73;;;7.68;;
35648;SDS011;21768;48.562;13.414;2023-06-10T02:14:13;15.40;;;7.68;;
35648;SDS011;21768;48.562;13.414;2023-06-10T02:16:39;11.25;;;7.25;;
35648;SDS011;21768;48.562;13.414;2023-06-10T02:19:04;10.50;;;7.68;;
35648;SDS011;21768;48.562;13.414;2023-06-10T02:21:31;12.20;;;6.88;;
35648;SDS011;21768;48.562;13.414;2023-06-10T02:23:57;9.15;;;6.40;;
35648;SDS011;21768;48.562;13.414;2023-06-10T02:26:23;9.43;;;7.18;;
35648;SDS011;21768;48.562;13.414;2023-06-10T02:28:50;9.95;;;6.97;;
35648;SDS011;21768;48.562;13.414;2023-06-10T02:31:16;10.05;;;7.25;;
35648;SDS011;21768;48.562;13.414;2023-06-10T02:33:43;13.00;;;7.00;;
35648;SDS011;21768;48.562;13.414;2023-06-10T02:36:09;11.45;;;6.75;;
35648;SDS011;21768;48.562;13.414;2023-06-10T02:38:38;9.88;;;7.13;;
35648;SDS011;21768;48.562;13.414;2023-06-10T02:41:04;7.95;;;6.43;;
35648;SDS011;21768;48.562;13.414;2023-06-10T02:43:30;9.80;;;6.63;;
35648;SDS011;21768;48.562;13.414;2023-06-10T02:45:55;8.50;;;6.30;;
35648;SDS011;21768;48.562;13.414;2023-06-10T02:48:20;8.45;;;6.15;;
35648;SDS011;21768;48.562;13.414;2023-06-10T02:50:46;10.10;;;6.93;;
35648;SDS011;21768;48.562;13.414;2023-06-10T02:53:11;10.27;;;6.50;;
35648;SDS011;21768;48.562;13.414;2023-06-10T02:55:37;10.68;;;6.72;;
35648;SDS011;21768;48.562;13.414;2023-06-10T02:58:04;11.20;;;7.00;;
35648;SDS011;21768;48.562;13.414;2023-06-10T03:00:30;12.07;;;7.15;;
35648;SDS011;21768;48.562;13.414;2023-06-10T03:02:55;10.07;;;6.63;;
35648;SDS011;21768;48.562;13.414;2023-06-10T03:05:22;9.07;;;7.18;;
35648;SDS011;21768;48.562;13.414;2023-06-10T03:07:48;8.40;;;6.82;;
35648;SDS011;21768;48.562;13.414;2023-06-10T03:10:14;8.98;;;6.53;;
35648;SDS011;21768;48.562;13.414;2023-06-10T03:12:40;11.05;;;6.72;;
35648;SDS011;21768;48.562;13.414;2023-06-10T03:15:05;8.35;;;6.32;;
35648;SDS011;21768;48.562;13.414;2023-06-10T03:17:31;9.68;;;7.45;;
35648;SDS011;21768;48.562;13.414;2023-06-10T03:19:57;11.68;;;7.18;;
35648;SDS011;21768;48.562;13.414;2023-06-10T03:22:22;14.55;;;7.45;;
35648;SDS011;21768;48.562;13.414;2023-06-10T03:24:47;11.93;;;7.28;;
35648;SDS011;21768;48.562;13.414;2023-06-10T03:27:15;9.68;;;6.95;;
35648;SDS011;21768;48.562;13.414;2023-06-10T03:29:41;14.73;;;7.72;;
35648;SDS011;21768;48.562;13.414;2023-06-10T03:32:07;11.60;;;7.20;;
35648;SDS011;21768;48.562;13.414;2023-06-10T03:34:32;10.35;;;7.45;;
35648;SDS011;21768;48.562;13.414;2023-06-10T03:36:58;13.32;;;8.73;;
35648;SDS011;21768;48.562;13.414;2023-06-10T03:39:24;12.95;;;7.57;;
35648;SDS011;21768;48.562;13.414;2023-06-10T03:41:50;10.30;;;7.47;;
35648;SDS011;21768;48.562;13.414;2023-06-10T03:44:16;11.93;;;7.28;;
35648;SDS011;21768;48.562;13.414;2023-06-10T03:46:41;10.75;;;7.20;;
35648;SDS011;21768;48.562;13.414;2023-06-10T03:49:07;9.00;;;7.13;;
35648;SDS011;21768;48.562;13.414;2023-06-10T03:51:32;12.85;;;7.45;;
35648;SDS011;21768;48.562;13.414;2023-06-10T03:53:58;9.50;;;7.00;;
35648;SDS011;21768;48.562;13.414;2023-06-10T03:56:23;9.82;;;6.78;;
35648;SDS011;21768;48.562;13.414;2023-06-10T03:58:49;9.35;;;7.50;;
35648;SDS011;21768;48.562;13.414;2023-06-10T04:01:14;9.85;;;7.20;;
35648;SDS011;21768;48.562;13.414;2023-06-10T04:03:40;10.00;;;7.40;;
35648;SDS011;21768;48.562;13.414;2023-06-10T04:06:06;11.27;;;7.20;;
35648;SDS011;21768;48.562;13.414;2023-06-10T04:08:32;9.85;;;7.50;;
35648;SDS011;21768;48.562;13.414;2023-06-10T04:10:58;9.82;;;7.60;;
35648;SDS011;21768;48.562;13.414;2023-06-10T04:13:23;10.90;;;8.05;;
35648;SDS011;21768;48.562;13.414;2023-06-10T04:15:49;15.13;;;7.70;;
35648;SDS011;21768;48.562;13.414;2023-06-10T04:18:14;13.98;;;8.15;;
35648;SDS011;21768;48.562;13.414;2023-06-10T04:20:40;10.45;;;7.75;;
35648;SDS011;21768;48.562;13.414;2023-06-10T04:23:06;10.35;;;8.05;;
35648;SDS011;21768;48.562;13.414;2023-06-10T04:25:32;9.65;;;7.78;;
35648;SDS011;21768;48.562;13.414;2023-06-10T04:27:57;14.57;;;8.45;;
35648;SDS011;21768;48.562;13.414;2023-06-10T04:30:22;14.77;;;8.63;;
35648;SDS011;21768;48.562;13.414;2023-06-10T04:32:48;11.95;;;9.00;;
35648;SDS011;21768;48.562;13.414;2023-06-10T04:35:13;10.82;;;8.30;;
35648;SDS011;21768;48.562;13.414;2023-06-10T04:37:40;12.10;;;8.15;;
35648;SDS011;21768;48.562;13.414;2023-06-10T04:40:06;12.63;;;8.25;;
35648;SDS011;21768;48.562;13.414;2023-06-10T04:42:32;11.02;;;7.55;;
35648;SDS011;21768;48.562;13.414;2023-06-10T04:44:58;11.27;;;7.90;;
35648;SDS011;21768;48.562;13.414;2023-06-10T04:47:23;12.38;;;8.10;;
35648;SDS011;21768;48.562;13.414;2023-06-10T04:49:49;14.65;;;7.95;;
35648;SDS011;21768;48.562;13.414;2023-06-10T04:52:14;11.05;;;7.53;;
35648;SDS011;21768;48.562;13.414;2023-06-10T04:54:39;14.30;;;7.65;;
35648;SDS011;21768;48.562;13.414;2023-06-10T04:57:06;12.18;;;7.60;;
35648;SDS011;21768;48.562;13.414;2023-06-10T04:59:32;14.55;;;7.57;;
35648;SDS011;21768;48.562;13.414;2023-06-10T05:02:02;10.98;;;7.30;;
35648;SDS011;21768;48.562;13.414;2023-06-10T05:04:28;9.63;;;7.32;;
35648;SDS011;21768;48.562;13.414;2023-06-10T05:06:54;10.45;;;7.53;;
35648;SDS011;21768;48.562;13.414;2023-06-10T05:09:20;9.38;;;6.85;;
35648;SDS011;21768;48.562;13.414;2023-06-10T05:11:45;8.77;;;6.95;;
35648;SDS011;21768;48.562;13.414;2023-06-10T05:14:11;9.68;;;6.82;;
35648;SDS011;21768;48.562;13.414;2023-06-10T05:16:37;8.40;;;6.65;;
35648;SDS011;21768;48.562;13.414;2023-06-10T05:19:02;8.15;;;6.22;;
35648;SDS011;21768;48.562;13.414;2023-06-10T05:21:29;9.93;;;6.53;;
35648;SDS011;21768;48.562;13.414;2023-06-10T05:23:54;9.35;;;6.45;;
35648;SDS011;21768;48.562;13.414;2023-06-10T05:26:20;9.95;;;6.22;;
35648;SDS011;21768;48.562;13.414;2023-06-10T05:28:45;12.73;;;6.55;;
35648;SDS011;21768;48.562;13.414;2023-06-10T05:31:10;7.55;;;5.97;;
35648;SDS011;21768;48.562;13.414;2023-06-10T05:33:36;11.02;;;6.53;;
35648;SDS011;21768;48.562;13.414;2023-06-10T05:36:01;9.98;;;7.05;;
35648;SDS011;21768;48.562;13.414;2023-06-10T05:38:27;9.70;;;7.20;;
35648;SDS011;21768;48.562;13.414;2023-06-10T05:40:52;9.73;;;6.88;;
35648;SDS011;21768;48.562;13.414;2023-06-10T05:43:17;12.80;;;7.28;;
35648;SDS011;21768;48.562;13.414;2023-06-10T05:45:43;9.18;;;6.70;;
35648;SDS011;21768;48.562;13.414;2023-06-10T05:48:09;7.57;;;6.03;;
35648;SDS011;21768;48.562;13.414;2023-06-10T05:50:34;9.43;;;6.90;;
35648;SDS011;21768;48.562;13.414;2023-06-10T05:53:04;9.65;;;6.47;;
35648;SDS011;21768;48.562;13.414;2023-06-10T05:55:31;10.32;;;6.90;;
35648;SDS011;21768;48.562;13.414;2023-06-10T05:58:00;11.10;;;6.93;;
35648;SDS011;21768;48.562;13.414;2023-06-10T06:00:26;12.48;;;8.60;;
35648;SDS011;21768;48.562;13.414;2023-06-10T06:02:52;12.10;;;8.15;;
35648;SDS011;21768;48.562;13.414;2023-06-10T06:05:19;14.18;;;9.05;;
35648;SDS011;21768;48.562;13.414;2023-06-10T06:07:44;9.93;;;7.60;;
35648;SDS011;21768;48.562;13.414;2023-06-10T06:10:09;9.93;;;7.25;;
35648;SDS011;21768;48.562;13.414;2023-06-10T06:12:35;10.05;;;7.25;;
35648;SDS011;21768;48.562;13.414;2023-06-10T06:15:00;9.43;;;7.35;;
35648;SDS011;21768;48.562;13.414;2023-06-10T06:17:26;9.63;;;7.63;;
35648;SDS011;21768;48.562;13.414;2023-06-10T06:19:52;10.68;;;7.38;;
35648;SDS011;21768;48.562;13.414;2023-06-10T06:22:17;9.45;;;7.15;;
35648;SDS011;21768;48.562;13.414;2023-06-10T06:24:46;11.65;;;7.97;;
35648;SDS011;21768;48.562;13.414;2023-06-10T06:27:12;13.43;;;7.97;;
35648;SDS011;21768;48.562;13.414;2023-06-10T06:29:37;11.73;;;7.10;;
35648;SDS011;21768;48.562;13.414;2023-06-10T06:32:02;10.30;;;7.45;;
35648;SDS011;21768;48.562;13.414;2023-06-10T06:34:28;10.65;;;7.47;;
35648;SDS011;21768;48.562;13.414;2023-06-10T06:36:53;11.13;;;7.60;;
35648;SDS011;21768;48.562;13.414;2023-06-10T06:39:19;16.90;;;8.00;;
35648;SDS011;21768;48.562;13.414;2023-06-10T06:41:44;9.93;;;7.13;;
35648;SDS011;21768;48.562;13.414;2023-06-10T06:44:10;9.48;;;7.40;;
35648;SDS011;21768;48.562;13.414;2023-06-10T06:46:35;10.23;;;7.10;;
35648;SDS011;21768;48.562;13.414;2023-06-10T06:49:00;12.45;;;7.28;;
35648;SDS011;21768;48.562;13.414;2023-06-10T06:51:26;11.35;;;7.30;;
35648;SDS011;21768;48.562;13.414;2023-06-10T06:53:51;8.85;;;6.65;;
35648;SDS011;21768;48.562;13.414;2023-06-10T06:56:19;10.15;;;6.97;;
35648;SDS011;21768;48.562;13.414;2023-06-10T06:58:46;9.68;;;6.65;;
35648;SDS011;21768;48.562;13.414;2023-06-10T07:01:11;9.43;;;6.38;;
35648;SDS011;21768;48.562;13.414;2023-06-10T07:03:37;9.80;;;6.80;;
35648;SDS011;21768;48.562;13.414;2023-06-10T07:06:02;9.50;;;6.90;;
35648;SDS011;21768;48.562;13.414;2023-06-10T07:08:28;9.13;;;6.53;;
35648;SDS011;21768;48.562;13.414;2023-06-10T07:10:53;11.43;;;6.90;;
35648;SDS011;21768;48.562;13.414;2023-06-10T07:13:19;10.05;;;6.53;;
35648;SDS011;21768;48.562;13.414;2023-06-10T07:15:45;10.10;;;7.22;;
35648;SDS011;21768;48.562;13.414;2023-06-10T07:18:10;10.70;;;7.38;;
35648;SDS011;21768;48.562;13.414;2023-06-10T07:20:36;12.05;;;6.82;;
35648;SDS011;21768;48.562;13.414;2023-06-10T07:23:01;10.50;;;7.50;;
35648;SDS011;21768;48.562;13.414;2023-06-10T07:25:26;13.90;;;7.70;;
35648;SDS011;21768;48.562;13.414;2023-06-10T07:27:52;9.15;;;7.07;;
35648;SDS011;21768;48.562;13.414;2023-06-10T07:30:17;10.15;;;7.53;;
35648;SDS011;21768;48.562;13.414;2023-06-10T07:32:42;9.85;;;7.47;;
35648;SDS011;21768;48.562;13.414;2023-06-10T07:35:09;9.18;;;6.68;;
35648;SDS011;21768;48.562;13.414;2023-06-10T07:37:38;9.25;;;7.40;;
35648;SDS011;21768;48.562;13.414;2023-06-10T07:40:04;8.68;;;7.20;;
35648;SDS011;21768;48.562;13.414;2023-06-10T07:42:31;10.15;;;7.63;;
35648;SDS011;21768;48.562;13.414;2023-06-10T07:44:58;9.60;;;7.15;;
35648;SDS011;21768;48.562;13.414;2023-06-10T07:47:23;9.68;;;7.40;;
35648;SDS011;21768;48.562;13.414;2023-06-10T07:49:48;9.55;;;7.28;;
35648;SDS011;21768;48.562;13.414;2023-06-10T07:52:14;9.05;;;7.18;;
35648;SDS011;21768;48.562;13.414;2023-06-10T07:54:39;11.05;;;7.72;;
35648;SDS011;21768;48.562;13.414;2023-06-10T07:57:05;11.80;;;8.35;;
35648;SDS011;21768;48.562;13.414;2023-06-10T07:59:32;21.30;;;13.98;;
35648;SDS011;21768;48.562;13.414;2023-06-10T08:01:57;11.25;;;7.50;;
35648;SDS011;21768;48.562;13.414;2023-06-10T08:04:23;10.20;;;7.75;;
35648;SDS011;21768;48.562;13.414;2023-06-10T08:06:48;9.73;;;6.80;;
35648;SDS011;21768;48.562;13.414;2023-06-10T08:09:13;8.68;;;6.97;;
35648;SDS011;21768;48.562;13.414;2023-06-10T08:11:39;12.13;;;6.97;;
35648;SDS011;21768;48.562;13.414;2023-06-10T08:14:04;9.55;;;7.28;;
35648;SDS011;21768;48.562;13.414;2023-06-10T08:16:30;9.95;;;6.80;;
35648;SDS011;21768;48.562;13.414;2023-06-10T08:18:55;9.85;;;6.32;;
35648;SDS011;21768;48.562;13.414;2023-06-10T08:21:23;10.02;;;6.47;;
35648;SDS011;21768;48.562;13.414;2023-06-10T08:23:49;9.63;;;6.80;;
35648;SDS011;21768;48.562;13.414;2023-06-10T08:26:18;6.95;;;5.97;;
35648;SDS011;21768;48.562;13.414;2023-06-10T08:28:43;9.55;;;6.55;;
35648;SDS011;21768;48.562;13.414;2023-06-10T08:31:08;8.35;;;6.78;;
35648;SDS011;21768;48.562;13.414;2023-06-10T08:33:34;9.07;;;6.20;;
35648;SDS011;21768;48.562;13.414;2023-06-10T08:35:59;8.55;;;5.60;;
35648;SDS011;21768;48.562;13.414;2023-06-10T08:38:25;7.55;;;6.43;;
35648;SDS011;21768;48.562;13.414;2023-06-10T08:40:50;9.95;;;6.03;;
35648;SDS011;21768;48.562;13.414;2023-06-10T08:43:42;7.75;;;5.95;;
35648;SDS011;21768;48.562;13.414;2023-06-10T08:46:10;7.43;;;6.07;;
35648;SDS011;21768;48.562;13.414;2023-06-10T08:48:42;12.07;;;5.82;;
35648;SDS011;21768;48.562;13.414;2023-06-10T08:51:11;8.30;;;6.20;;
35648;SDS011;21768;48.562;13.414;2023-06-10T08:53:42;9.25;;;6.80;;
35648;SDS011;21768;48.562;13.414;2023-06-10T08:56:15;7.80;;;5.32;;
35648;SDS011;21768;48.562;13.414;2023-06-10T08:58:42;6.95;;;5.50;;
35648;SDS011;21768;48.562;13.414;2023-06-10T09:01:08;6.95;;;5.78;;
35648;SDS011;21768;48.562;13.414;2023-06-10T09:03:36;11.75;;;5.88;;
35648;SDS011;21768;48.562;13.414;2023-06-10T09:06:04;7.10;;;5.47;;
35648;SDS011;21768;48.562;13.414;2023-06-10T09:08:30;5.90;;;5.30;;
35648;SDS011;21768;48.562;13.414;2023-06-10T09:10:56;7.03;;;5.38;;
35648;SDS011;21768;48.562;13.414;2023-06-10T09:13:22;6.18;;;5.43;;
35648;SDS011;21768;48.562;13.414;2023-06-10T09:15:48;7.38;;;5.50;;
35648;SDS011;21768;48.562;13.414;2023-06-10T09:18:14;7.00;;;5.05;;
35648;SDS011;21768;48.562;13.414;2023-06-10T09:20:41;6.60;;;5.40;;
35648;SDS011;21768;48.562;13.414;2023-06-10T09:23:08;5.50;;;4.90;;
35648;SDS011;21768;48.562;13.414;2023-06-10T09:25:34;6.68;;;5.70;;
35648;SDS011;21768;48.562;13.414;2023-06-10T09:28:01;10.70;;;5.88;;
35648;SDS011;21768;48.562;13.414;2023-06-10T09:32:53;6.55;;;5.53;;
35648;SDS011;21768;48.562;13.414;2023-06-10T09:35:21;6.15;;;5.03;;
35648;SDS011;21768;48.562;13.414;2023-06-10T09:37:49;6.53;;;5.05;;
35648;SDS011;21768;48.562;13.414;2023-06-10T09:40:16;6.95;;;5.40;;
35648;SDS011;21768;48.562;13.414;2023-06-10T09:42:42;10.05;;;5.50;;
35648;SDS011;21768;48.562;13.414;2023-06-10T09:45:07;5.57;;;4.95;;
35648;SDS011;21768;48.562;13.414;2023-06-10T09:47:33;5.95;;;5.00;;
35648;SDS011;21768;48.562;13.414;2023-06-10T09:49:58;6.43;;;5.10;;
35648;SDS011;21768;48.562;13.414;2023-06-10T09:52:25;6.25;;;5.35;;
35648;SDS011;21768;48.562;13.414;2023-06-10T09:54:52;5.05;;;4.55;;
35648;SDS011;21768;48.562;13.414;2023-06-10T09:57:19;5.05;;;4.18;;
35648;SDS011;21768;48.562;13.414;2023-06-10T09:59:46;5.18;;;3.88;;
35648;SDS011;21768;48.562;13.414;2023-06-10T10:02:15;4.20;;;3.80;;
35648;SDS011;21768;48.562;13.414;2023-06-10T10:04:41;4.97;;;4.47;;
35648;SDS011;21768;48.562;13.414;2023-06-10T10:07:08;21.70;;;14.68;;
35648;SDS011;21768;48.562;13.414;2023-06-10T10:09:37;5.68;;;4.80;;
35648;SDS011;21768;48.562;13.414;2023-06-10T10:12:10;5.65;;;4.90;;
35648;SDS011;21768;48.562;13.414;2023-06-10T10:14:38;6.22;;;4.93;;
35648;SDS011;21768;48.562;13.414;2023-06-10T10:17:09;6.72;;;4.65;;
35648;SDS011;21768;48.562;13.414;2023-06-10T10:19:37;5.72;;;4.85;;
35648;SDS011;21768;48.562;13.414;2023-06-10T10:22:10;6.38;;;5.00;;
35648;SDS011;21768;48.562;13.414;2023-06-10T10:24:50;5.40;;;4.47;;
35648;SDS011;21768;48.562;13.414;2023-06-10T10:27:21;5.53;;;4.90;;
35648;SDS011;21768;48.562;13.414;2023-06-10T10:29:51;6.32;;;5.07;;
35648;SDS011;21768;48.562;13.414;2023-06-10T10:32:19;6.40;;;4.88;;
35648;SDS011;21768;48.562;13.414;2023-06-10T10:35:08;5.78;;;5.18;;
35648;SDS011;21768;48.562;13.414;2023-06-10T10:37:37;6.05;;;5.40;;
35648;SDS011;21768;48.562;13.414;2023-06-10T10:40:04;6.35;;;5.35;;
35648;SDS011;21768;48.562;13.414;2023-06-10T10:42:32;6.72;;;5.60;;
35648;SDS011;21768;48.562;13.414;2023-06-10T10:44:58;5.13;;;4.60;;
35648;SDS011;21768;48.562;13.414;2023-06-10T10:47:25;5.78;;;5.15;;
35648;SDS011;21768;48.562;13.414;2023-06-10T10:49:54;6.47;;;5.40;;
35648;SDS011;21768;48.562;13.414;2023-06-10T10:52:21;6.13;;;5.43;;
35648;SDS011;21768;48.562;13.414;2023-06-10T10:54:46;7.35;;;5.45;;
35648;SDS011;21768;48.562;13.414;2023-06-10T10:57:13;7.07;;;6.00;;
35648;SDS011;21768;48.562;13.414;2023-06-10T10:59:57;6.28;;;5.15;;
35648;SDS011;21768;48.562;13.414;2023-06-10T11:05:03;8.43;;;5.30;;
35648;SDS011;21768;48.562;13.414;2023-06-10T11:07:30;7.78;;;5.40;;
35648;SDS011;21768;48.562;13.414;2023-06-10T11:10:04;6.25;;;5.43;;
35648;SDS011;21768;48.562;13.414;2023-06-10T11:15:06;8.20;;;5.47;;
35648;SDS011;21768;48.562;13.414;2023-06-10T11:17:31;7.30;;;5.03;;
35648;SDS011;21768;48.562;13.414;2023-06-10T11:19:58;7.88;;;5.00;;
35648;SDS011;21768;48.562;13.414;2023-06-10T11:22:24;6.38;;;5.10;;
35648;SDS011;21768;48.562;13.414;2023-06-10T11:24:49;6.35;;;4.80;;
35648;SDS011;21768;48.562;13.414;2023-06-10T11:32:29;5.53;;;4.18;;
35648;SDS011;21768;48.562;13.414;2023-06-10T11:34:57;6.10;;;4.05;;
35648;SDS011;21768;48.562;13.414;2023-06-10T11:37:23;7.32;;;3.83;;
35648;SDS011;21768;48.562;13.414;2023-06-10T11:39:55;25.35;;;16.15;;
35648;SDS011;21768;48.562;13.414;2023-06-10T11:42:21;29.60;;;17.38;;
35648;SDS011;21768;48.562;13.414;2023-06-10T11:44:50;4.38;;;3.97;;
35648;SDS011;21768;48.562;13.414;2023-06-10T11:47:17;4.18;;;3.78;;
35648;SDS011;21768;48.562;13.414;2023-06-10T11:49:44;4.07;;;3.67;;
35648;SDS011;21768;48.562;13.414;2023-06-10T11:52:10;4.20;;;3.80;;
35648;SDS011;21768;48.562;13.414;2023-06-10T11:54:36;4.65;;;3.40;;
35648;SDS011;21768;48.562;13.414;2023-06-10T11:57:02;5.05;;;3.60;;
35648;SDS011;21768;48.562;13.414;2023-06-10T11:59:33;5.03;;;3.40;;
35648;SDS011;21768;48.562;13.414;2023-06-10T12:01:58;4.05;;;3.65;;
35648;SDS011;21768;48.562;13.414;2023-06-10T12:04:23;3.90;;;3.50;;
35648;SDS011;21768;48.562;13.414;2023-06-10T12:06:51;6.80;;;4.18;;
35648;SDS011;21768;48.562;13.414;2023-06-10T12:11:52;5.38;;;4.10;;
35648;SDS011;21768;48.562;13.414;2023-06-10T12:17:17;4.60;;;3.75;;
35648;SDS011;21768;48.562;13.414;2023-06-10T12:19:42;5.72;;;4.00;;
35648;SDS011;21768;48.562;13.414;2023-06-10T12:22:08;5.03;;;4.03;;
35648;SDS011;21768;48.562;13.414;2023-06-10T12:24:42;6.72;;;4.18;;
35648;SDS011;21768;48.562;13.414;2023-06-10T12:29:38;6.47;;;3.83;;
35648;SDS011;21768;48.562;13.414;2023-06-10T12:32:03;4.85;;;3.70;;
35648;SDS011;21768;48.562;13.414;2023-06-10T12:34:31;22.20;;;4.75;;
35648;SDS011;21768;48.562;13.414;2023-06-10T12:36:58;5.15;;;3.90;;
35648;SDS011;21768;48.562;13.414;2023-06-10T12:39:25;6.35;;;4.20;;
35648;SDS011;21768;48.562;13.414;2023-06-10T12:41:51;9.88;;;4.80;;
35648;SDS011;21768;48.562;13.414;2023-06-10T12:44:17;5.28;;;4.28;;
35648;SDS011;21768;48.562;13.414;2023-06-10T12:46:43;5.07;;;4.57;;
35648;SDS011;21768;48.562;13.414;2023-06-10T12:49:18;13.70;;;5.60;;
35648;SDS011;21768;48.562;13.414;2023-06-10T12:51:44;14.10;;;4.78;;
35648;SDS011;21768;48.562;13.414;2023-06-10T12:54:10;7.25;;;5.28;;
35648;SDS011;21768;48.562;13.414;2023-06-10T12:56:35;14.32;;;5.07;;
35648;SDS011;21768;48.562;13.414;2023-06-10T12:59:01;11.38;;;8.25;;
35648;SDS011;21768;48.562;13.414;2023-06-10T13:01:27;8.93;;;5.63;;
35648;SDS011;21768;48.562;13.414;2023-06-10T13:03:53;10.32;;;6.70;;
35648;SDS011;21768;48.562;13.414;2023-06-10T13:06:18;9.90;;;5.10;;
35648;SDS011;21768;48.562;13.414;2023-06-10T13:08:45;10.38;;;6.50;;
35648;SDS011;21768;48.562;13.414;2023-06-10T13:11:12;7.38;;;4.95;;
35648;SDS011;21768;48.562;13.414;2023-06-10T13:13:37;7.45;;;5.38;;
35648;SDS011;21768;48.562;13.414;2023-06-10T13:16:03;7.18;;;4.80;;
35648;SDS011;21768;48.562;13.414;2023-06-10T13:18:28;7.85;;;5.53;;
35648;SDS011;21768;48.562;13.414;2023-06-10T13:20:53;11.05;;;6.13;;
35648;SDS011;21768;48.562;13.414;2023-06-10T13:23:19;10.60;;;5.85;;
35648;SDS011;21768;48.562;13.414;2023-06-10T13:25:44;9.18;;;6.22;;
35648;SDS011;21768;48.562;13.414;2023-06-10T13:28:10;6.53;;;5.32;;
35648;SDS011;21768;48.562;13.414;2023-06-10T13:30:36;9.15;;;5.50;;
35648;SDS011;21768;48.562;13.414;2023-06-10T13:33:01;9.15;;;5.85;;
35648;SDS011;21768;48.562;13.414;2023-06-10T13:35:26;7.35;;;6.10;;
35648;SDS011;21768;48.562;13.414;2023-06-10T13:37:52;10.05;;;5.40;;
35648;SDS011;21768;48.562;13.414;2023-06-10T13:40:17;8.30;;;5.70;;
35648;SDS011;21768;48.562;13.414;2023-06-10T13:42:44;8.27;;;6.03;;
35648;SDS011;21768;48.562;13.414;2023-06-10T13:45:10;10.50;;;6.30;;
35648;SDS011;21768;48.562;13.414;2023-06-10T13:47:35;8.35;;;6.30;;
35648;SDS011;21768;48.562;13.414;2023-06-10T13:50:01;12.40;;;7.93;;
35648;SDS011;21768;48.562;13.414;2023-06-10T13:52:26;10.55;;;7.35;;
35648;SDS011;21768;48.562;13.414;2023-06-10T13:54:51;10.77;;;8.10;;
35648;SDS011;21768;48.562;13.414;2023-06-10T13:57:17;7.40;;;6.32;;
35648;SDS011;21768;48.562;13.414;2023-06-10T13:59:42;9.45;;;7.07;;
35648;SDS011;21768;48.562;13.414;2023-06-10T14:02:08;7.50;;;5.55;;
35648;SDS011;21768;48.562;13.414;2023-06-10T14:04:34;7.47;;;5.90;;
35648;SDS011;21768;48.562;13.414;2023-06-10T14:06:59;9.43;;;6.43;;
35648;SDS011;21768;48.562;13.414;2023-06-10T14:09:25;9.98;;;6.57;;
35648;SDS011;21768;48.562;13.414;2023-06-10T14:11:51;7.82;;;6.32;;
35648;SDS011;21768;48.562;13.414;2023-06-10T14:14:16;10.23;;;6.40;;
35648;SDS011;21768;48.562;13.414;2023-06-10T14:16:42;9.52;;;5.97;;
35648;SDS011;21768;48.562;13.414;2023-06-10T14:19:07;6.82;;;6.03;;
35648;SDS011;21768;48.562;13.414;2023-06-10T14:21:33;10.18;;;5.75;;
35648;SDS011;21768;48.562;13.414;2023-06-10T14:23:58;8.88;;;6.25;;
35648;SDS011;21768;48.562;13.414;2023-06-10T14:26:24;8.20;;;5.90;;
35648;SDS011;21768;48.562;13.414;2023-06-10T14:28:51;8.82;;;5.50;;
35648;SDS011;21768;48.562;13.414;2023-06-10T14:31:16;10.80;;;5.80;;
35648;SDS011;21768;48.562;13.414;2023-06-10T14:33:42;12.18;;;5.53;;
35648;SDS011;21768;48.562;13.414;2023-06-10T14:36:08;9.75;;;5.55;;
35648;SDS011;21768;48.562;13.414;2023-06-10T14:38:34;8.02;;;5.78;;
35648;SDS011;21768;48.562;13.414;2023-06-10T14:41:00;8.90;;;5.28;;
35648;SDS011;21768;48.562;13.414;2023-06-10T14:43:25;13.82;;;8.40;;
35648;SDS011;21768;48.562;13.414;2023-06-10T14:45:50;14.63;;;8.93;;
35648;SDS011;21768;48.562;13.414;2023-06-10T14:48:16;9.00;;;5.18;;
35648;SDS011;21768;48.562;13.414;2023-06-10T14:50:41;4.68;;;3.90;;